Time;durP1;ratioP1;P1;durP2;ratioP2;P2;SDS_P1;SDS_P2;PMS_P1;PMS_P2;Temp;Humidity;BMP_temperature;BMP_pressure;BME280_temperature;BME280_humidity;BME280_pressure;Samples;Min_cycle;Max_cycle;Signal;HPM_P1;HPM_P2
2021/12/05 00:22:45;;;;;;;11.68;6.85;;;;;;;-0.97;72.72;99515.09;4910365;29;20044;-77
2021/12/05 00:25:15;;;;;;;13.10;6.63;;;;;;;-0.95;72.56;99510.91;4916030;29;20131;-75
2021/12/05 00:27:48;;;;;;;14.18;6.90;;;;;;;-0.94;72.38;99498.16;4908135;29;20051;-75
2021/12/05 00:30:54;;;;;;;14.55;6.35;;;;;;;-0.87;71.90;99511.16;4912124;29;20998;-77
2021/12/05 00:36:55;;;;;;;13.23;6.47;;;;;;;-0.85;72.00;99505.25;4906158;29;19926;-77
2021/12/05 01:14:08;;;;;;;26.00;14.68;;;;;;;-1.09;72.06;99506.19;4910026;29;20502;-76
2021/12/05 01:16:37;;;;;;;28.80;15.88;;;;;;;-1.18;72.59;99490.56;4906566;29;20161;-75
2021/12/05 01:19:07;;;;;;;28.63;17.30;;;;;;;-1.14;72.76;99499.19;4898161;29;20041;-76
2021/12/05 01:21:37;;;;;;;27.63;15.77;;;;;;;-1.06;72.56;99487.56;4906155;29;20055;-78
2021/12/05 01:26:56;;;;;;;22.15;13.00;;;;;;;-0.85;72.94;99495.03;4905177;29;20529;-76
2021/12/05 01:29:39;;;;;;;21.58;12.73;;;;;;;-0.88;72.79;99487.28;4907354;29;20063;-77
2021/12/05 01:35:04;;;;;;;22.33;12.52;;;;;;;-1.19;72.62;99490.50;4903562;29;20055;-78
2021/12/05 01:38:02;;;;;;;23.60;12.70;;;;;;;-1.34;72.64;99491.72;4905976;29;20047;-77
2021/12/05 01:41:03;;;;;;;23.23;13.10;;;;;;;-1.38;73.21;99500.09;4905760;29;20048;-79
2021/12/05 02:32:49;;;;;;;30.08;15.40;;;;;;;-0.74;73.40;99500.50;4908164;29;20040;-76
2021/12/05 02:43:08;;;;;;;23.35;12.27;;;;;;;-0.87;73.12;99475.38;4916065;29;20045;-77
2021/12/05 02:45:38;;;;;;;23.77;11.32;;;;;;;-0.67;73.70;99496.47;4898073;29;20067;-76
2021/12/05 02:48:08;;;;;;;24.80;12.55;;;;;;;-0.81;73.73;99478.13;4905304;29;20045;-78
2021/12/05 02:50:35;;;;;;;22.63;12.40;;;;;;;-0.70;73.23;99486.16;4892882;29;20051;-77
2021/12/05 02:53:13;;;;;;;24.42;12.52;;;;;;;-0.62;73.57;99485.56;4908475;29;20032;-78
2021/12/05 02:55:44;;;;;;;24.20;12.50;;;;;;;-0.56;73.62;99504.47;4907767;29;20040;-79
2021/12/05 02:58:22;;;;;;;22.30;12.25;;;;;;;-0.65;73.49;99488.00;4909658;29;20054;-79
2021/12/05 03:03:22;;;;;;;28.33;11.85;;;;;;;-0.75;73.35;99485.97;4908083;29;20473;-78
2021/12/05 03:05:55;;;;;;;22.00;11.65;;;;;;;-0.62;73.81;99497.47;4913245;29;20044;-75
2021/12/05 03:08:22;;;;;;;27.23;12.40;;;;;;;-0.63;73.81;99468.50;4896324;29;20048;-75
2021/12/05 03:10:49;;;;;;;35.97;15.85;;;;;;;-0.45;73.64;99482.66;4892794;29;20455;-74
2021/12/05 03:13:16;;;;;;;39.58;16.17;;;;;;;-0.35;73.96;99483.78;4868322;29;20032;-77
2021/12/05 03:15:42;;;;;;;61.00;23.92;;;;;;;-0.26;73.85;99490.88;4874212;29;20095;-78
2021/12/05 03:18:09;;;;;;;69.00;26.38;;;;;;;-0.16;73.66;99491.19;4908179;29;20035;-77
2021/12/05 03:20:35;;;;;;;85.75;30.80;;;;;;;-0.02;73.34;99488.19;4908507;29;20040;-77
2021/12/05 03:23:01;;;;;;;76.25;29.15;;;;;;;-0.05;74.44;99473.59;4907777;29;20040;-76
2021/12/05 03:25:29;;;;;;;75.55;29.05;;;;;;;0.12;73.54;99499.66;4908320;29;21112;-78
2021/12/05 03:27:55;;;;;;;61.78;25.38;;;;;;;0.14;73.43;99489.47;4922021;29;20066;-75
2021/12/05 03:30:25;;;;;;;49.20;21.40;;;;;;;0.21;73.20;99496.50;4920989;29;20151;-77
2021/12/05 03:32:52;;;;;;;40.03;19.42;;;;;;;0.06;73.55;99473.91;4904761;29;20043;-78
2021/12/05 03:35:22;;;;;;;39.03;17.35;;;;;;;0.20;73.58;99494.75;4903878;29;20036;-76
2021/12/05 03:37:49;;;;;;;39.92;17.25;;;;;;;0.23;73.62;99499.97;4913496;29;20040;-77
2021/12/05 03:40:20;;;;;;;30.35;15.02;;;;;;;0.22;73.16;99498.25;4913444;29;20111;-76
2021/12/05 03:42:47;;;;;;;25.67;13.77;;;;;;;0.24;73.20;99501.72;4912890;29;20047;-76
2021/12/05 03:45:21;;;;;;;27.52;14.50;;;;;;;-0.02;73.37;99463.44;4913570;29;20044;-76
2021/12/05 03:47:48;;;;;;;25.13;14.05;;;;;;;0.18;73.00;99513.47;4914045;29;20036;-77
2021/12/05 03:50:15;;;;;;;24.08;13.50;;;;;;;0.11;73.48;99509.88;4908437;29;20044;-77
2021/12/05 03:52:45;;;;;;;27.45;13.98;;;;;;;-0.08;73.47;99477.75;4908889;29;20103;-76
2021/12/05 03:55:13;;;;;;;24.58;13.18;;;;;;;-0.05;73.02;99498.31;4879586;29;20044;-75
2021/12/05 03:57:39;;;;;;;21.92;12.05;;;;;;;-0.17;73.15;99480.94;4895793;29;20060;-77
2021/12/05 04:00:22;;;;;;;25.60;13.52;;;;;;;0.01;73.43;99507.88;4912277;29;20037;-78
2021/12/05 04:02:54;;;;;;;24.17;12.90;;;;;;;-0.07;72.77;99526.41;4912971;29;20040;-76
2021/12/05 04:05:26;;;;;;;22.88;11.93;;;;;;;-0.04;74.27;99528.19;4912889;29;20101;-76
2021/12/05 04:07:54;;;;;;;26.20;12.50;;;;;;;-0.14;73.69;99515.94;4911768;29;20079;-79
2021/12/05 04:10:21;;;;;;;21.40;12.35;;;;;;;0.02;73.49;99527.50;4910593;29;20056;-78
2021/12/05 04:12:47;;;;;;;24.08;12.38;;;;;;;0.09;73.51;99532.00;4910894;29;20066;-78
2021/12/05 04:15:14;;;;;;;22.42;11.18;;;;;;;0.05;73.40;99530.16;4895017;29;20052;-77
2021/12/05 04:17:41;;;;;;;20.65;10.85;;;;;;;-0.12;73.57;99507.50;4911865;29;20048;-77
2021/12/05 04:20:10;;;;;;;23.08;11.88;;;;;;;-0.08;72.87;99528.94;4895362;29;20051;-77
2021/12/05 04:22:36;;;;;;;24.00;11.50;;;;;;;-0.16;73.69;99510.78;4909359;29;20622;-78
2021/12/05 04:25:08;;;;;;;20.63;10.98;;;;;;;-0.04;73.23;99513.69;4902890;29;20131;-75
2021/12/05 04:27:34;;;;;;;20.15;10.20;;;;;;;0.13;73.18;99541.47;4901719;29;20051;-78
2021/12/05 04:30:01;;;;;;;19.85;9.88;;;;;;;-0.05;73.33;99513.69;4897116;29;20104;-79
2021/12/05 04:32:28;;;;;;;20.05;9.98;;;;;;;0.05;73.91;99527.59;4909203;29;20051;-75
2021/12/05 04:34:55;;;;;;;15.73;9.48;;;;;;;0.12;73.73;99532.06;4913065;29;20054;-76
2021/12/05 04:37:20;;;;;;;19.42;9.35;;;;;;;0.19;73.27;99544.22;4912339;29;20107;-76
2021/12/05 04:39:47;;;;;;;18.45;8.57;;;;;;;0.23;73.44;99545.16;4911787;29;20186;-74
2021/12/05 04:42:14;;;;;;;18.58;9.43;;;;;;;-0.04;73.41;99506.03;4881981;29;20351;-75
2021/12/05 04:44:40;;;;;;;18.02;8.35;;;;;;;0.07;73.79;99543.88;4910440;29;20051;-77
2021/12/05 04:47:06;;;;;;;18.67;9.35;;;;;;;0.09;74.26;99542.22;4915324;29;20052;-78
2021/12/05 04:49:33;;;;;;;15.65;8.18;;;;;;;0.03;73.93;99530.09;4919091;29;20106;-74
2021/12/05 04:51:58;;;;;;;19.50;8.10;;;;;;;0.12;74.05;99540.63;4916965;29;20048;-74
2021/12/05 04:54:25;;;;;;;20.00;8.20;;;;;;;0.07;73.64;99549.00;4889178;29;20133;-76
2021/12/05 04:56:51;;;;;;;18.77;7.75;;;;;;;0.06;73.86;99549.81;4922180;29;20056;-76
2021/12/05 04:59:27;;;;;;;16.00;7.80;;;;;;;-0.01;74.06;99541.09;4922291;29;20040;-76
2021/12/05 05:01:59;;;;;;;16.90;8.07;;;;;;;-0.37;73.62;99485.44;4923447;29;20052;-76
2021/12/05 05:04:27;;;;;;;14.95;7.53;;;;;;;0.01;73.43;99552.22;4908570;29;20044;-76
2021/12/05 05:07:04;;;;;;;15.60;7.95;;;;;;;0.00;73.33;99553.06;4908652;29;20059;-75
2021/12/05 05:09:30;;;;;;;14.13;7.53;;;;;;;-0.02;73.52;99560.66;4922308;29;20183;-78
2021/12/05 05:11:57;;;;;;;15.38;7.53;;;;;;;-0.07;73.39;99556.25;4919552;29;20067;-78
2021/12/05 05:14:23;;;;;;;16.17;7.32;;;;;;;-0.25;73.43;99529.28;4920622;29;20047;-75
2021/12/05 05:16:53;;;;;;;16.60;8.18;;;;;;;-0.07;74.46;99566.47;4919210;29;20048;-74
2021/12/05 05:19:26;;;;;;;16.92;8.60;;;;;;;-0.11;73.61;99557.81;4923510;29;20036;-73
2021/12/05 05:22:26;;;;;;;15.45;8.18;;;;;;;-0.22;74.24;99537.03;4906544;29;20044;-76
2021/12/05 05:44:03;;;;;;;16.65;8.23;;;;;;;-0.15;74.78;99548.34;4906512;29;20048;-76
2021/12/05 05:46:50;;;;;;;15.85;8.05;;;;;;;0.12;74.65;99576.44;4907998;29;20052;-78
2021/12/05 05:49:17;;;;;;;16.20;8.57;;;;;;;-0.10;74.19;99546.78;4915312;29;20347;-76
2021/12/05 05:51:43;;;;;;;15.63;8.45;;;;;;;0.08;74.12;99586.56;4908367;29;20054;-77
2021/12/05 05:54:10;;;;;;;16.35;8.35;;;;;;;0.13;74.30;99588.41;4922012;29;20530;-75
2021/12/05 05:56:37;;;;;;;16.55;8.20;;;;;;;0.17;74.60;99593.63;4906612;29;20064;-78
2021/12/05 05:59:12;;;;;;;14.32;7.97;;;;;;;0.18;73.99;99597.94;4909451;29;20047;-75
2021/12/05 06:04:05;;;;;;;14.95;8.07;;;;;;;0.04;74.03;99606.03;4907234;29;20047;-77
2021/12/05 06:06:32;;;;;;;16.83;8.45;;;;;;;-0.07;74.76;99575.00;4909306;29;20080;-77
2021/12/05 06:08:59;;;;;;;16.23;8.27;;;;;;;-0.05;74.48;99573.38;4907914;29;20055;-73
2021/12/05 06:11:25;;;;;;;16.10;8.20;;;;;;;-0.09;74.29;99568.97;4910987;29;20044;-77
2021/12/05 06:13:52;;;;;;;15.77;8.35;;;;;;;0.01;74.09;99593.16;4909486;29;20047;-77
2021/12/05 06:16:20;;;;;;;17.38;7.72;;;;;;;0.12;75.02;99598.59;4899301;29;20389;-77
2021/12/05 06:18:46;;;;;;;17.42;8.25;;;;;;;0.16;74.30;99591.91;4906548;29;20469;-79
2021/12/05 06:21:16;;;;;;;17.25;8.25;;;;;;;0.22;74.50;99608.28;4913505;29;20044;-75
2021/12/05 06:23:46;;;;;;;18.92;9.63;;;;;;;0.23;74.57;99596.34;4896463;29;20534;-76
2021/12/05 06:26:20;;;;;;;15.55;8.00;;;;;;;0.24;74.75;99596.41;4894337;29;20048;-78
2021/12/05 06:28:56;;;;;;;18.27;8.35;;;;;;;0.35;74.20;99611.19;4906803;29;20055;-79
2021/12/05 06:31:47;;;;;;;16.77;8.18;;;;;;;0.37;74.32;99615.56;4906580;29;20659;-78
2021/12/05 06:37:14;;;;;;;15.65;8.70;;;;;;;0.39;74.12;99613.03;4908639;29;20051;-77
2021/12/05 06:47:52;;;;;;;15.55;7.72;;;;;;;0.23;74.74;99615.16;4912322;29;20051;-79
2021/12/05 06:50:18;;;;;;;15.90;8.30;;;;;;;0.35;74.54;99626.56;4909504;29;20049;-78
2021/12/05 06:52:44;;;;;;;14.45;8.00;;;;;;;0.24;74.62;99603.22;4909428;29;20035;-77
2021/12/05 06:55:11;;;;;;;19.42;8.60;;;;;;;0.33;74.41;99613.72;4882969;29;20040;-74
2021/12/05 06:57:37;;;;;;;17.15;8.65;;;;;;;0.28;74.56;99607.59;4913332;29;21406;-76
2021/12/05 07:00:10;;;;;;;17.58;9.07;;;;;;;0.45;74.42;99623.47;4896361;29;20124;-78
2021/12/05 07:02:39;;;;;;;16.27;8.55;;;;;;;0.51;74.30;99630.44;4894392;29;20493;-78
2021/12/05 07:07:36;;;;;;;18.30;9.05;;;;;;;0.53;73.96;99632.25;4905224;29;20099;-75
2021/12/05 07:10:07;;;;;;;13.88;7.78;;;;;;;0.57;74.39;99644.28;4915783;29;20048;-77
2021/12/05 07:15:33;;;;;;;18.67;8.32;;;;;;;0.24;74.06;99593.84;4912685;29;20044;-79
2021/12/05 07:21:18;;;;;;;21.08;9.30;;;;;;;0.63;74.35;99660.66;4905772;29;20040;-78
2021/12/05 07:44:23;;;;;;;21.65;8.65;;;;;;;0.66;74.42;99635.16;4928451;29;20048;-76
2021/12/05 07:47:29;;;;;;;17.08;8.13;;;;;;;0.85;74.45;99662.16;4922376;29;20142;-78
2021/12/05 07:50:05;;;;;;;;;;;;;;;0.98;74.63;99668.50;4913945;29;20107;-76
2021/12/05 07:52:32;;;;;;;15.70;7.50;;;;;;;0.64;74.01;99609.50;4893135;29;19919;-78
2021/12/05 07:55:11;;;;;;;16.60;7.13;;;;;;;0.88;74.21;99658.00;4897702;29;20064;-77
2021/12/05 08:00:54;;;;;;;18.20;8.02;;;;;;;0.25;73.99;99539.28;4921075;29;20119;-80
2021/12/05 08:16:52;;;;;;;20.17;8.52;;;;;;;1.38;74.29;99651.63;4904994;29;20055;-78
2021/12/05 08:19:21;;;;;;;13.95;7.35;;;;;;;1.58;74.29;99664.09;4903621;29;20056;-79
2021/12/05 08:21:55;;;;;;;14.00;7.07;;;;;;;1.61;74.16;99653.91;4906735;29;20072;-79
2021/12/05 08:24:32;;;;;;;14.38;7.90;;;;;;;1.74;74.21;99635.41;4911319;29;20076;-78
2021/12/05 08:27:15;;;;;;;18.15;8.90;;;;;;;2.08;74.05;99661.00;4906601;29;20131;-78
2021/12/05 08:29:48;;;;;;;14.52;8.90;;;;;;;1.80;73.77;99575.66;4882415;29;20151;-76
2021/12/05 08:32:37;;;;;;;17.42;8.25;;;;;;;2.19;73.88;99607.34;4913930;29;20167;-78
2021/12/05 08:35:49;;;;;;;15.95;7.90;;;;;;;2.62;73.66;99664.78;4906357;29;20160;-78
2021/12/05 09:30:51;;;;;;;18.40;9.52;;;;;;;0.96;72.43;99565.94;4908976;29;20056;-81
2021/12/05 10:10:07;;;;;;;18.55;8.90;;;;;;;2.07;71.40;99675.56;4908206;29;20123;-79
2021/12/05 10:37:56;;;;;;;14.65;8.05;;;;;;;2.46;70.58;99673.00;4906911;29;20180;-77
2021/12/05 10:40:35;;;;;;;15.70;7.97;;;;;;;2.38;71.22;99658.28;4908505;29;20055;-79
2021/12/05 10:43:09;;;;;;;14.40;7.75;;;;;;;2.46;71.11;99683.28;4904738;29;20044;-76
2021/12/05 10:45:43;;;;;;;15.43;8.18;;;;;;;2.24;70.99;99662.25;4908288;29;20047;-77
2021/12/05 10:48:25;;;;;;;12.43;7.82;;;;;;;2.24;70.49;99682.78;4893722;29;20071;-77
2021/12/05 10:50:57;;;;;;;16.05;8.50;;;;;;;1.72;71.07;99611.41;4912981;29;20052;-77
2021/12/05 10:53:31;;;;;;;15.23;7.68;;;;;;;2.08;71.55;99692.72;4918613;29;20560;-76
2021/12/05 10:56:04;;;;;;;13.50;7.78;;;;;;;2.08;70.94;99697.84;4904088;29;20470;-78
2021/12/05 10:58:37;;;;;;;13.80;7.50;;;;;;;1.82;71.21;99651.00;4904852;29;20047;-77
2021/12/05 11:01:17;;;;;;;13.93;7.90;;;;;;;1.81;71.48;99646.69;4904127;29;20063;-79
2021/12/05 11:04:01;;;;;;;12.70;7.60;;;;;;;1.89;71.03;99667.41;4905189;29;20442;-78
2021/12/05 11:07:04;;;;;;;14.10;7.30;;;;;;;1.88;70.70;99692.22;4892756;29;20055;-78
2021/12/05 11:09:34;;;;;;;17.30;8.05;;;;;;;1.84;71.35;99700.66;4904763;29;20070;-76
2021/12/05 11:12:15;;;;;;;11.70;7.13;;;;;;;1.86;71.53;99688.72;4889269;29;20059;-76
2021/12/05 11:14:50;;;;;;;18.27;7.55;;;;;;;1.66;71.09;99667.69;4910212;29;20084;-79
2021/12/05 11:17:25;;;;;;;14.15;8.23;;;;;;;1.79;71.53;99685.16;4907085;29;20085;-80
2021/12/05 11:19:59;;;;;;;17.15;7.72;;;;;;;1.73;71.85;99661.06;4889627;29;20056;-76
2021/12/05 11:22:38;;;;;;;18.30;8.25;;;;;;;1.56;72.02;99625.56;4904761;29;20184;-80
2021/12/05 11:25:06;;;;;;;12.93;7.32;;;;;;;1.80;71.41;99661.22;4907296;29;20075;-80
2021/12/05 11:27:46;;;;;;;13.32;7.05;;;;;;;1.95;70.92;99693.22;4893485;29;20044;-76
2021/12/05 11:30:33;;;;;;;15.13;7.45;;;;;;;1.79;70.89;99685.16;4891658;29;20066;-77
2021/12/05 11:33:02;;;;;;;11.55;7.18;;;;;;;1.91;71.51;99730.78;4910359;29;20043;-75
2021/12/05 11:35:42;;;;;;;15.15;7.85;;;;;;;1.85;71.57;99699.81;4911326;29;20052;-77
2021/12/05 11:38:08;;;;;;;13.35;7.50;;;;;;;1.93;71.77;99717.97;4913547;29;20092;-77
2021/12/05 11:40:42;;;;;;;17.77;7.88;;;;;;;1.88;71.65;99720.44;4912535;29;20079;-77
2021/12/05 11:43:35;;;;;;;16.17;8.65;;;;;;;1.72;71.67;99698.66;4905161;29;20502;-78
2021/12/05 11:46:09;;;;;;;14.52;8.05;;;;;;;1.90;71.57;99725.59;4903493;29;20052;-76
2021/12/05 11:48:54;;;;;;;20.90;9.45;;;;;;;1.88;71.78;99733.28;4897422;29;20044;-76
2021/12/05 11:51:28;;;;;;;18.67;8.98;;;;;;;1.78;71.44;99723.59;4907142;29;20072;-79
2021/12/05 11:54:01;;;;;;;17.40;9.48;;;;;;;1.80;71.53;99724.50;4905372;29;20036;-78
2021/12/05 11:56:30;;;;;;;18.75;9.90;;;;;;;1.80;71.59;99727.94;4909712;29;20051;-76
2021/12/05 11:59:17;;;;;;;19.00;9.70;;;;;;;1.88;71.69;99729.81;4895731;29;20071;-79
2021/12/05 12:02:06;;;;;;;17.27;9.80;;;;;;;1.88;71.79;99727.25;4909050;29;20079;-77
2021/12/05 12:04:57;;;;;;;17.90;10.27;;;;;;;1.85;71.34;99720.34;4907307;29;20052;-77
2021/12/05 12:07:27;;;;;;;16.35;9.25;;;;;;;1.79;72.05;99723.66;4909436;29;20085;-77
2021/12/05 12:10:03;;;;;;;15.88;8.85;;;;;;;1.77;71.48;99727.88;4895025;29;20044;-77
2021/12/05 12:12:30;;;;;;;15.95;8.85;;;;;;;1.65;71.70;99723.28;4910221;29;20131;-81
2021/12/05 12:14:56;;;;;;;17.92;9.10;;;;;;;1.55;72.06;99715.31;4908114;29;20039;-76
2021/12/05 12:17:23;;;;;;;19.25;10.05;;;;;;;1.56;71.78;99711.91;4909489;29;20424;-77
2021/12/05 12:19:51;;;;;;;18.23;9.02;;;;;;;1.64;71.90;99728.38;4909764;29;20052;-81
2021/12/05 12:22:21;;;;;;;17.90;9.50;;;;;;;1.74;72.04;99745.75;4906758;29;20075;-78
2021/12/05 12:24:53;;;;;;;17.67;9.65;;;;;;;1.76;71.73;99746.66;4910463;29;20558;-75
2021/12/05 12:27:20;;;;;;;19.63;9.50;;;;;;;1.75;71.82;99747.47;4907904;29;20366;-79
2021/12/05 12:29:52;;;;;;;17.02;8.60;;;;;;;1.50;71.97;99707.50;4907002;29;20052;-77
2021/12/05 12:43:58;;;;;;;17.75;9.35;;;;;;;1.70;71.74;99749.06;4883139;29;20051;-79
2021/12/05 12:47:01;;;;;;;16.33;8.07;;;;;;;1.63;71.84;99729.22;4908784;29;20044;-80
2021/12/05 12:49:37;;;;;;;13.95;7.90;;;;;;;1.46;71.48;99710.81;4896087;29;20108;-77
2021/12/05 12:52:13;;;;;;;17.52;9.70;;;;;;;1.27;71.75;99696.63;4911940;29;20417;-77
2021/12/05 12:57:52;;;;;;;15.00;8.35;;;;;;;1.47;71.64;99753.59;4891946;29;20442;-75
2021/12/05 13:00:26;;;;;;;14.38;8.43;;;;;;;0.83;71.21;99661.25;4890958;29;20958;-78
2021/12/05 13:03:14;;;;;;;16.83;8.68;;;;;;;0.14;71.78;99558.56;4875541;29;20040;-79
2021/12/05 13:12:08;;;;;;;18.05;9.05;;;;;;;0.90;71.79;99707.59;4870291;29;20052;-78
2021/12/05 13:14:44;;;;;;;;;;;;;;;;;;;;;
2021/12/05 13:17:44;;;;;;;17.45;8.95;;;;;;;0.84;72.42;99696.31;4888695;29;20139;-76
2021/12/05 13:20:18;;;;;;;16.52;8.45;;;;;;;0.70;71.87;99668.56;4873398;29;20127;-79
2021/12/05 13:23:15;;;;;;;16.27;8.65;;;;;;;1.27;72.02;99776.97;4876623;29;20059;-80
2021/12/05 13:26:23;;;;;;;15.98;8.88;;;;;;;1.12;71.73;99779.97;4875926;29;20144;-78
2021/12/05 13:29:15;;;;;;;17.70;8.13;;;;;;;1.09;71.60;99781.59;4856640;29;20088;-78
2021/12/05 13:31:50;;;;;;;18.23;8.98;;;;;;;1.05;72.47;99778.03;4884372;29;21367;-79
2021/12/05 13:34:35;;;;;;;15.80;8.13;;;;;;;0.35;71.94;99665.84;4873633;29;20047;-79
2021/12/05 13:37:13;;;;;;;17.13;9.02;;;;;;;1.08;71.84;99785.81;4895135;29;20048;-77
2021/12/05 13:40:31;;;;;;;15.73;8.27;;;;;;;1.05;71.80;99795.97;4874491;29;20044;-77
2021/12/05 13:43:07;;;;;;;16.63;8.57;;;;;;;0.56;72.21;99705.72;4842202;29;20168;-81
2021/12/05 13:45:50;;;;;;;18.55;9.25;;;;;;;1.10;72.38;99794.44;4897079;29;20052;-76
2021/12/05 13:48:34;;;;;;;18.58;9.18;;;;;;;0.44;72.19;99683.19;4891732;29;20102;-76
2021/12/05 13:51:33;;;;;;;17.33;8.48;;;;;;;0.83;72.11;99743.25;4907794;29;20051;-79
2021/12/05 13:54:22;;;;;;;17.52;9.13;;;;;;;1.12;72.36;99791.91;4843656;29;20507;-79
2021/12/05 13:56:48;;;;;;;18.70;9.57;;;;;;;1.08;72.53;99778.13;4862128;29;20045;-81
2021/12/05 13:59:14;;;;;;;17.10;8.70;;;;;;;0.92;72.15;99747.75;4856880;29;20053;-78
2021/12/05 14:01:50;;;;;;;16.63;8.63;;;;;;;1.13;72.38;99798.75;4855769;29;20036;-80
2021/12/05 14:04:24;;;;;;;16.55;9.20;;;;;;;1.09;71.87;99800.38;4855976;29;20053;-81
2021/12/05 14:07:26;;;;;;;18.35;8.70;;;;;;;0.37;72.16;99683.81;4857207;29;20143;-76
2021/12/05 14:10:23;;;;;;;21.88;9.13;;;;;;;0.41;71.81;99694.22;4828702;29;20463;-78
2021/12/05 14:13:40;;;;;;;19.58;8.43;;;;;;;0.71;71.89;99743.75;4870867;29;20462;-79
2021/12/05 14:16:33;;;;;;;17.77;8.95;;;;;;;0.75;72.22;99748.13;4856030;29;20044;-78
2021/12/05 14:19:08;;;;;;;20.63;9.52;;;;;;;1.12;71.96;99813.28;4855696;29;20048;-79
2021/12/05 14:21:49;;;;;;;21.45;10.95;;;;;;;1.13;72.19;99815.03;4857771;29;20041;-79
2021/12/05 14:24:33;;;;;;;19.05;10.23;;;;;;;1.17;72.26;99811.75;4847094;29;20404;-81
2021/12/05 14:27:22;;;;;;;19.08;9.43;;;;;;;1.20;72.00;99811.84;4892787;29;20084;-77
2021/12/05 14:29:57;;;;;;;20.63;9.85;;;;;;;0.66;72.03;99738.50;4878152;29;20566;-78
2021/12/05 14:32:46;;;;;;;19.67;9.93;;;;;;;0.32;71.67;99676.00;4895339;29;20062;-79
2021/12/05 14:35:24;;;;;;;19.70;9.38;;;;;;;1.00;71.68;99782.16;4895877;29;20073;-78
2021/12/05 14:38:12;;;;;;;19.35;9.73;;;;;;;0.70;71.84;99732.59;4892712;29;20044;-75
2021/12/05 14:40:38;;;;;;;18.80;9.80;;;;;;;0.72;71.68;99743.78;4894056;29;20147;-82
2021/12/05 14:43:56;;;;;;;17.63;9.43;;;;;;;0.54;71.90;99718.50;4894845;29;20099;-76
2021/12/05 14:47:07;;;;;;;20.80;9.70;;;;;;;1.19;71.76;99827.16;4906749;29;20051;-79
2021/12/05 14:50:32;;;;;;;;;;;;;;;;;;;;;
2021/12/05 14:53:42;;;;;;;20.13;9.30;;;;;;;0.66;71.73;99732.47;4872546;29;20052;-77
2021/12/05 14:56:08;;;;;;;19.70;9.82;;;;;;;0.83;71.51;99776.53;4912359;29;20044;-76
2021/12/05 14:59:30;;;;;;;18.83;9.85;;;;;;;0.24;71.80;99682.56;4898699;29;20094;-80
2021/12/05 15:02:04;;;;;;;17.65;9.40;;;;;;;0.65;71.30;99749.56;4901199;29;20056;-79
2021/12/05 15:04:58;;;;;;;17.52;9.07;;;;;;;0.58;71.69;99755.31;4892987;29;20048;-78
2021/12/05 15:08:08;;;;;;;15.13;8.40;;;;;;;0.40;71.45;99747.91;4894366;29;21441;-78
2021/12/05 15:11:03;;;;;;;14.75;8.25;;;;;;;-0.11;71.54;99680.63;4852980;29;21493;-80
2021/12/05 15:13:52;;;;;;;13.90;6.65;;;;;;;0.55;71.70;99794.47;4844673;29;20057;-79
2021/12/05 15:17:03;;;;;;;16.17;7.45;;;;;;;0.90;71.30;99861.34;4909238;29;20040;-78
2021/12/05 15:19:29;;;;;;;14.25;7.22;;;;;;;0.97;71.76;99853.84;4907451;29;20515;-77
2021/12/05 15:21:59;;;;;;;11.50;6.63;;;;;;;0.62;71.22;99795.56;4906852;29;20211;-79
2021/12/05 15:24:53;;;;;;;14.23;7.03;;;;;;;0.95;71.59;99855.47;4904476;29;20083;-79
2021/12/05 15:27:41;;;;;;;13.18;7.30;;;;;;;0.52;71.78;99786.72;4877506;29;20048;-80
2021/12/05 15:30:23;;;;;;;13.32;7.43;;;;;;;0.84;71.32;99842.34;4907649;29;20131;-81
2021/12/05 15:32:55;;;;;;;;;;;;;;;0.95;71.52;99853.78;4881480;29;20052;-81
2021/12/05 15:35:28;;;;;;;12.93;7.20;;;;;;;0.93;71.54;99863.09;4909171;29;19958;-82
2021/12/05 15:38:23;;;;;;;12.70;7.07;;;;;;;0.76;71.69;99834.41;4908573;29;20069;-79
2021/12/05 15:40:55;;;;;;;12.13;6.55;;;;;;;0.63;71.31;99806.66;4901997;29;20048;-81
2021/12/05 15:43:26;;;;;;;15.40;7.32;;;;;;;0.72;70.95;99836.00;4891337;29;20099;-79
2021/12/05 15:46:04;;;;;;;14.23;7.03;;;;;;;0.68;71.48;99820.50;4910825;29;20632;-79
2021/12/05 15:48:38;;;;;;;12.38;6.07;;;;;;;0.65;70.80;99828.06;4912995;29;20087;-80
2021/12/05 15:51:10;;;;;;;15.38;7.68;;;;;;;0.76;70.91;99844.66;4880136;29;20056;-79
2021/12/05 15:53:39;;;;;;;13.82;7.43;;;;;;;0.62;70.89;99828.84;4911476;29;20036;-79
2021/12/05 15:56:14;;;;;;;11.75;6.53;;;;;;;0.80;71.06;99846.47;4897622;29;20100;-81
2021/12/05 15:58:46;;;;;;;13.52;7.53;;;;;;;0.92;71.11;99876.75;4913796;29;20059;-78
2021/12/05 16:01:18;;;;;;;14.68;7.25;;;;;;;0.86;71.16;99856.94;4911252;29;20051;-80
2021/12/05 16:03:44;;;;;;;11.82;6.72;;;;;;;0.90;71.30;99876.72;4913461;29;20076;-78
2021/12/05 16:06:13;;;;;;;17.55;7.50;;;;;;;0.89;71.44;99866.38;4910523;29;20044;-79
2021/12/05 16:08:41;;;;;;;16.83;8.90;;;;;;;0.97;71.40;99872.63;4893209;29;20048;-79
2021/12/05 16:11:13;;;;;;;15.82;7.93;;;;;;;0.85;70.42;99857.75;4912251;29;20052;-79
2021/12/05 16:13:42;;;;;;;14.70;7.53;;;;;;;0.83;70.50;99863.66;4909057;29;20247;-78
2021/12/05 16:16:28;;;;;;;15.85;7.63;;;;;;;0.71;70.89;99836.81;4895316;29;20036;-81
2021/12/05 16:18:59;;;;;;;12.50;7.40;;;;;;;0.79;71.12;99852.41;4896717;29;20063;-80
2021/12/05 16:21:34;;;;;;;15.63;7.95;;;;;;;0.84;70.92;99873.94;4910942;29;20051;-78
2021/12/05 16:24:13;;;;;;;13.48;7.38;;;;;;;0.77;70.54;99864.34;4925476;29;20125;-79
2021/12/05 16:26:40;;;;;;;14.90;7.63;;;;;;;0.65;71.10;99846.88;4906328;29;20425;-80
2021/12/05 16:29:19;;;;;;;17.75;9.40;;;;;;;0.89;70.53;99897.13;4910432;29;20040;-77
2021/12/05 16:31:55;;;;;;;14.05;7.78;;;;;;;0.71;70.69;99859.88;4909387;29;20545;-80
2021/12/05 16:34:25;;;;;;;17.67;8.18;;;;;;;0.73;71.02;99878.72;4895487;29;20044;-78
2021/12/05 16:37:06;;;;;;;16.70;8.80;;;;;;;0.85;71.20;99906.44;4882063;29;20124;-80
2021/12/05 16:39:42;;;;;;;16.10;8.18;;;;;;;0.74;71.00;99887.28;4914326;29;20055;-80
2021/12/05 16:42:15;;;;;;;16.63;8.35;;;;;;;0.64;70.84;99872.44;4901211;29;20048;-79
2021/12/05 16:44:48;;;;;;;17.05;8.73;;;;;;;0.82;71.27;99905.47;4909756;29;20123;-78
2021/12/05 16:47:20;;;;;;;18.27;8.20;;;;;;;0.57;70.89;99874.78;4879128;29;20048;-79
2021/12/05 16:49:49;;;;;;;14.57;7.65;;;;;;;0.82;71.03;99910.59;4910138;29;20048;-79
2021/12/05 16:52:20;;;;;;;16.58;8.77;;;;;;;0.85;71.25;99910.69;4890402;29;20044;-81
2021/12/05 16:54:58;;;;;;;15.95;8.00;;;;;;;0.84;71.33;99912.38;4895331;29;20469;-77
2021/12/05 16:57:40;;;;;;;17.27;7.50;;;;;;;0.72;71.53;99900.03;4906020;29;20566;-81
2021/12/05 17:00:17;;;;;;;21.85;9.18;;;;;;;0.73;71.12;99900.94;4911092;29;20072;-78
2021/12/05 17:03:03;;;;;;;15.07;8.10;;;;;;;0.72;71.13;99910.28;4908508;29;20043;-78
2021/12/05 17:05:48;;;;;;;18.58;9.45;;;;;;;0.72;71.19;99909.44;4894298;29;20136;-78
2021/12/05 17:08:27;;;;;;;18.83;9.50;;;;;;;0.84;70.74;99921.75;4909507;29;20395;-81
2021/12/05 17:11:12;;;;;;;15.18;8.18;;;;;;;0.81;70.85;99930.22;4902414;29;20040;-78
2021/12/05 17:13:44;;;;;;;17.60;8.98;;;;;;;0.84;71.41;99926.88;4905815;29;20072;-77
2021/12/05 17:16:20;;;;;;;13.90;8.02;;;;;;;0.88;71.53;99921.91;4881950;29;20137;-76
2021/12/05 17:18:57;;;;;;;16.35;8.95;;;;;;;0.89;70.81;99921.09;4924821;29;20048;-78
2021/12/05 17:21:28;;;;;;;19.27;9.07;;;;;;;0.93;71.49;99929.72;4894731;29;20423;-78
2021/12/05 17:24:05;;;;;;;14.02;7.53;;;;;;;0.90;71.68;99925.41;4905840;29;20044;-77
2021/12/05 17:26:37;;;;;;;16.27;8.55;;;;;;;1.02;71.57;99941.97;4906801;29;20095;-79
2021/12/05 17:29:19;;;;;;;16.33;8.20;;;;;;;1.03;71.79;99938.59;4908803;29;20064;-79
2021/12/05 17:31:50;;;;;;;14.07;7.72;;;;;;;1.01;70.90;99943.69;4908548;29;20367;-75
2021/12/05 17:34:29;;;;;;;15.43;8.15;;;;;;;0.94;71.46;99928.06;4907416;29;21134;-78
2021/12/05 17:37:05;;;;;;;16.52;8.05;;;;;;;1.01;71.48;99932.53;4895616;29;20040;-80
2021/12/05 17:39:37;;;;;;;17.98;7.85;;;;;;;0.91;71.33;99923.69;4925115;29;20066;-81
2021/12/05 17:42:10;;;;;;;14.43;7.72;;;;;;;0.84;71.44;99907.25;4880218;29;20071;-79
2021/12/05 17:44:38;;;;;;;17.02;7.97;;;;;;;0.94;70.98;99917.81;4896701;29;20406;-79
2021/12/05 17:47:17;;;;;;;14.90;8.05;;;;;;;0.88;71.27;99906.53;4908712;29;20112;-80
2021/12/05 17:50:09;;;;;;;15.52;7.60;;;;;;;0.35;71.34;99804.09;4908771;29;20537;-82
2021/12/05 17:52:59;;;;;;;;;;;;;;;1.18;71.09;99925.38;4914703;29;20516;-79
2021/12/05 17:55:41;;;;;;;17.33;8.45;;;;;;;0.44;70.74;99827.41;4900840;29;20026;-82